Time;durP1;ratioP1;P1;durP2;ratioP2;P2;SDS_P1;SDS_P2;PMS_P1;PMS_P2;Temp;Humidity;BMP_temperature;BMP_pressure;BME280_temperature;BME280_humidity;BME280_pressure;Samples;Min_cycle;Max_cycle;Signal;HPM_P1;HPM_P2
2023/10/10 00:00:57;;;;;;;17.27;9.55;;;;;;;14.09;82.18;102002.38;5080207;28;20029;-68
2023/10/10 00:03:26;;;;;;;13.50;8.93;;;;;;;14.18;81.41;102005.56;5082852;28;20081;-68
2023/10/10 00:05:53;;;;;;;19.13;9.02;;;;;;;14.17;81.80;101998.47;5083807;28;20099;-68
2023/10/10 00:08:20;;;;;;;14.30;10.05;;;;;;;14.13;81.74;102004.88;5074217;28;20033;-67
2023/10/10 00:10:50;;;;;;;11.32;8.40;;;;;;;14.19;81.24;102007.28;5079951;28;20020;-68
2023/10/10 00:13:17;;;;;;;11.98;9.20;;;;;;;14.20;80.97;101997.50;5080307;28;20494;-67
2023/10/10 00:15:50;;;;;;;11.50;9.05;;;;;;;14.13;81.86;102007.53;5083070;28;20460;-68
2023/10/10 00:18:22;;;;;;;15.18;9.95;;;;;;;14.05;82.32;102004.25;5081395;28;20025;-68
2023/10/10 00:21:20;;;;;;;13.85;8.40;;;;;;;14.06;81.67;102008.66;5072357;28;20035;-68
2023/10/10 00:23:54;;;;;;;11.95;9.60;;;;;;;14.13;82.42;102009.28;5071325;28;20119;-68
2023/10/10 00:26:22;;;;;;;13.43;9.77;;;;;;;14.09;81.80;102003.25;5079429;28;20479;-68
2023/10/10 00:28:54;;;;;;;11.23;7.82;;;;;;;14.11;80.60;102009.34;5074306;28;20059;-68
2023/10/10 00:31:20;;;;;;;11.23;8.63;;;;;;;14.24;80.21;102010.66;5083067;28;20107;-68
2023/10/10 00:33:49;;;;;;;13.60;8.32;;;;;;;14.32;80.16;102012.16;5080837;28;20061;-68
2023/10/10 00:36:21;;;;;;;11.60;8.50;;;;;;;14.37;80.51;102000.44;5079608;28;20071;-68
2023/10/10 00:38:58;;;;;;;11.63;9.20;;;;;;;14.36;80.11;102001.38;5079069;28;20028;-68
2023/10/10 00:41:26;;;;;;;13.77;9.30;;;;;;;14.32;80.00;102001.53;5082618;28;20024;-68
2023/10/10 00:43:52;;;;;;;14.25;9.48;;;;;;;14.18;80.76;101999.38;5081096;28;20494;-68
2023/10/10 00:46:17;;;;;;;10.25;8.50;;;;;;;14.07;81.86;101990.91;5079409;28;20020;-68
2023/10/10 00:48:44;;;;;;;72.55;12.27;;;;;;;14.00;82.76;101995.59;5074554;28;20029;-68
2023/10/10 00:51:20;;;;;;;144.48;14.55;;;;;;;13.92;84.09;101995.84;5082453;28;20050;-68
2023/10/10 00:54:08;;;;;;;46.38;12.02;;;;;;;13.88;83.92;101985.38;5081436;28;20029;-68
2023/10/10 00:56:34;;;;;;;28.23;11.68;;;;;;;13.94;83.25;101995.78;5073568;28;20020;-68
2023/10/10 00:58:59;;;;;;;12.75;10.55;;;;;;;14.05;81.91;101996.28;5075408;28;20115;-68
2023/10/10 01:01:25;;;;;;;15.75;10.60;;;;;;;14.00;82.36;101990.28;5082510;28;20099;-68
2023/10/10 01:03:51;;;;;;;13.40;10.73;;;;;;;14.01;82.49;101984.03;5082510;28;20024;-68
2023/10/10 01:06:25;;;;;;;16.05;11.82;;;;;;;13.97;82.85;101975.28;5080941;28;20471;-68
2023/10/10 01:08:55;;;;;;;13.73;11.07;;;;;;;13.83;83.20;101979.38;5080205;28;20036;-68
2023/10/10 01:11:22;;;;;;;15.50;11.45;;;;;;;13.71;83.56;101976.22;5080676;28;20043;-68
2023/10/10 01:13:47;;;;;;;13.80;10.65;;;;;;;13.54;83.91;101965.31;5079092;28;20040;-69
2023/10/10 01:16:13;;;;;;;15.43;11.95;;;;;;;13.68;83.23;101973.66;5079512;28;20035;-68
2023/10/10 01:18:40;;;;;;;20.70;13.88;;;;;;;13.64;84.32;101966.72;5077975;28;20034;-68
2023/10/10 01:21:05;;;;;;;20.50;13.88;;;;;;;13.70;83.56;101963.84;5082507;28;20053;-68
2023/10/10 01:23:33;;;;;;;16.55;12.15;;;;;;;13.83;82.07;101961.63;5082234;28;20024;-67
2023/10/10 01:26:06;;;;;;;21.30;14.30;;;;;;;13.89;83.16;101971.16;5082528;28;20027;-67
2023/10/10 01:28:34;;;;;;;20.85;15.55;;;;;;;13.90;83.05;101959.63;5076256;28;20024;-68
2023/10/10 01:31:10;;;;;;;20.50;14.07;;;;;;;13.97;82.31;101958.47;5086132;28;20032;-68
2023/10/10 01:33:36;;;;;;;16.60;12.23;;;;;;;14.02;82.06;101961.81;5085263;28;20120;-68
2023/10/10 01:36:11;;;;;;;19.48;13.55;;;;;;;13.83;83.12;101955.44;5082949;28;20115;-68
2023/10/10 01:38:55;;;;;;;17.48;11.68;;;;;;;13.60;83.65;101948.28;5091193;28;20028;-68
2023/10/10 01:41:31;;;;;;;31.33;10.52;;;;;;;13.60;84.12;101945.63;5082516;28;20036;-68
2023/10/10 01:44:08;;;;;;;42.33;12.50;;;;;;;13.58;83.79;101940.38;5084751;28;20021;-68
2023/10/10 01:46:34;;;;;;;53.25;14.05;;;;;;;13.41;84.36;101932.13;5084740;28;20403;-68
2023/10/10 01:49:06;;;;;;;21.30;14.38;;;;;;;13.36;84.59;101934.06;5083249;28;20036;-68
2023/10/10 01:51:42;;;;;;;103.28;15.93;;;;;;;13.30;86.32;101934.28;5085402;28;20137;-68
2023/10/10 01:54:14;;;;;;;18.67;14.15;;;;;;;13.26;85.38;101926.41;5083891;28;20040;-68
2023/10/10 01:56:39;;;;;;;20.65;14.48;;;;;;;13.36;85.05;101926.97;5085968;28;20391;-68
2023/10/10 01:59:06;;;;;;;17.60;13.82;;;;;;;13.35;84.51;101927.03;5077116;28;20217;-68
2023/10/10 02:01:31;;;;;;;19.20;14.77;;;;;;;13.26;85.00;101917.56;5085598;28;20028;-68
2023/10/10 02:03:58;;;;;;;16.95;13.57;;;;;;;13.25;84.60;101918.50;5085364;28;20036;-69
2023/10/10 02:06:28;;;;;;;18.52;13.95;;;;;;;13.43;83.55;101915.22;5082865;28;20077;-68
2023/10/10 02:09:11;;;;;;;20.25;14.30;;;;;;;13.43;84.48;101915.22;5085664;28;20055;-68
2023/10/10 02:11:38;;;;;;;18.15;13.65;;;;;;;13.59;83.21;101915.53;5074415;28;20029;-68
2023/10/10 02:14:11;;;;;;;17.35;13.65;;;;;;;13.41;84.52;101917.03;5082195;28;20107;-68
2023/10/10 02:16:40;;;;;;;17.20;12.88;;;;;;;13.49;83.54;101916.78;5084335;28;20024;-68
2023/10/10 02:19:15;;;;;;;18.27;13.57;;;;;;;13.39;83.95;101910.94;5077569;28;20115;-68
2023/10/10 02:21:47;;;;;;;23.88;14.23;;;;;;;13.33;84.40;101907.59;5084985;28;20028;-69
2023/10/10 02:25:31;;;;;;;19.60;14.05;;;;;;;13.15;85.48;101901.97;5077731;28;20519;-68
2023/10/10 02:27:13;;;;;;;22.92;15.63;;;;;;;13.11;86.25;101904.78;5075523;28;20039;-68
2023/10/10 02:29:47;;;;;;;18.13;14.35;;;;;;;13.11;86.70;101895.03;5084827;28;20483;-67
2023/10/10 02:32:18;;;;;;;14.60;12.90;;;;;;;13.28;86.13;101897.13;5081538;28;20496;-67
2023/10/10 02:34:44;;;;;;;15.60;12.32;;;;;;;13.33;85.27;101889.88;5083335;28;20408;-67
2023/10/10 02:39:55;;;;;;;17.90;12.10;;;;;;;13.41;83.74;101885.16;5076386;28;20090;-67
2023/10/10 02:42:23;;;;;;;16.75;12.68;;;;;;;13.44;83.81;101882.41;5084765;28;20069;-67
2023/10/10 02:44:57;;;;;;;16.38;12.80;;;;;;;13.49;83.08;101893.75;5081579;28;20426;-67
2023/10/10 02:47:32;;;;;;;18.58;12.70;;;;;;;13.44;83.78;101889.50;5084882;28;20095;-67
2023/10/10 02:50:11;;;;;;;14.35;11.77;;;;;;;13.45;83.25;101889.44;5082898;28;20036;-67
2023/10/10 02:52:45;;;;;;;15.80;12.05;;;;;;;13.42;84.20;101891.34;5086585;28;20036;-67
2023/10/10 02:55:16;;;;;;;28.80;13.05;;;;;;;13.33;84.67;101897.84;5082316;28;20028;-67
2023/10/10 02:57:41;;;;;;;16.27;12.20;;;;;;;13.21;84.23;101892.94;5080277;28;20038;-67
2023/10/10 03:02:54;;;;;;;13.57;11.23;;;;;;;12.93;85.50;101882.38;5084478;28;20036;-67
2023/10/10 03:05:38;;;;;;;17.90;12.75;;;;;;;12.86;85.41;101881.69;5081930;28;20036;-67
2023/10/10 03:08:12;;;;;;;18.92;13.60;;;;;;;12.85;85.68;101887.94;5081060;28;20111;-68
2023/10/10 03:10:39;;;;;;;13.85;10.07;;;;;;;12.86;86.58;101889.66;5073871;28;20032;-68
2023/10/10 03:13:21;;;;;;;13.40;9.98;;;;;;;12.95;85.54;101883.19;5081150;28;20021;-67
2023/10/10 03:15:54;;;;;;;14.93;11.15;;;;;;;13.08;85.89;101881.00;5074719;28;20020;-67
2023/10/10 03:18:27;;;;;;;17.92;12.85;;;;;;;13.03;86.07;101883.81;5081198;28;20126;-67
2023/10/10 03:23:53;;;;;;;11.10;9.00;;;;;;;13.20;84.96;101893.88;5081763;28;20059;-68
2023/10/10 03:26:32;;;;;;;14.35;10.45;;;;;;;13.25;84.39;101890.16;5080361;28;20097;-68
2023/10/10 03:29:04;;;;;;;12.07;9.95;;;;;;;13.33;83.52;101896.97;5073895;28;20165;-68
2023/10/10 03:31:31;;;;;;;17.00;11.27;;;;;;;13.35;84.24;101889.84;5083907;28;20031;-67
2023/10/10 03:34:21;;;;;;;21.45;14.15;;;;;;;13.30;84.48;101889.13;5072912;28;20117;-67
2023/10/10 03:37:05;;;;;;;17.20;13.27;;;;;;;13.17;85.12;101886.84;5082368;28;20039;-68
2023/10/10 03:39:49;;;;;;;11.65;8.93;;;;;;;13.19;84.57;101894.75;5083666;28;20423;-67
2023/10/10 05:23:31;;;;;;;30.15;21.25;;;;;;;12.87;87.10;101837.44;5085997;28;20121;-68
2023/10/10 05:25:59;;;;;;;29.02;20.60;;;;;;;12.91;86.52;101834.63;5083243;28;20387;-68
2023/10/10 05:28:29;;;;;;;31.42;21.20;;;;;;;12.93;86.17;101824.84;5085724;28;20510;-68
2023/10/10 05:30:55;;;;;;;32.22;21.17;;;;;;;12.92;86.49;101832.88;5080698;28;20028;-68
2023/10/10 05:33:20;;;;;;;38.10;23.77;;;;;;;12.86;87.25;101833.06;5083870;28;20035;-67
2023/10/10 05:35:49;;;;;;;31.60;21.38;;;;;;;12.96;86.78;101824.75;5083119;28;20033;-68
2023/10/10 05:38:16;;;;;;;29.70;22.25;;;;;;;12.89;87.10;101827.66;5083131;28;20028;-68
2023/10/10 05:40:43;;;;;;;32.60;22.63;;;;;;;12.82;88.06;101818.16;5078626;28;20467;-68
2023/10/10 05:43:09;;;;;;;33.42;22.17;;;;;;;12.81;88.01;101811.13;5084459;28;20115;-68
2023/10/10 05:45:38;;;;;;;35.08;23.25;;;;;;;12.76;88.23;101817.44;5078622;28;20535;-68
2023/10/10 05:48:07;;;;;;;34.08;23.15;;;;;;;12.71;88.49;101811.44;5086308;28;20027;-68
2023/10/10 05:50:33;;;;;;;33.88;23.20;;;;;;;12.78;87.67;101820.06;5085181;28;20028;-68
2023/10/10 05:53:01;;;;;;;39.22;24.08;;;;;;;12.71;88.48;101810.56;5078243;28;20124;-68
2023/10/10 05:55:33;;;;;;;28.75;19.88;;;;;;;12.66;87.95;101821.34;5086306;28;20463;-68
2023/10/10 05:57:59;;;;;;;32.72;24.13;;;;;;;12.64;89.00;101819.66;5082819;28;20032;-67
2023/10/10 06:00:27;;;;;;;34.17;21.52;;;;;;;12.75;88.39;101821.03;5082152;28;20120;-68
2023/10/10 06:02:52;;;;;;;29.00;20.92;;;;;;;12.86;88.67;101825.97;5082326;28;20032;-68
2023/10/10 06:05:18;;;;;;;35.05;22.10;;;;;;;12.86;88.96;101818.00;5085635;28;20020;-68
2023/10/10 06:07:44;;;;;;;31.45;20.92;;;;;;;12.91;89.79;101818.72;5085700;28;20062;-68
2023/10/10 06:10:16;;;;;;;34.85;21.73;;;;;;;12.90;89.82;101824.94;5076686;28;20464;-68
2023/10/10 06:12:46;;;;;;;30.60;20.95;;;;;;;12.92;89.79;101820.47;5084284;28;20391;-68
2023/10/10 06:15:12;;;;;;;30.20;20.48;;;;;;;12.95;89.67;101827.44;5082500;28;20047;-67
2023/10/10 06:17:38;;;;;;;29.98;19.23;;;;;;;12.98;89.36;101824.69;5084175;28;20513;-68
2023/10/10 06:20:08;;;;;;;29.65;20.00;;;;;;;12.97;89.46;101820.31;5084433;28;20468;-68
2023/10/10 06:22:34;;;;;;;25.20;18.92;;;;;;;13.03;89.32;101818.28;5082309;28;20063;-68
2023/10/10 06:24:59;;;;;;;27.23;19.70;;;;;;;13.06;88.99;101814.69;5082600;28;20638;-67
2023/10/10 06:27:36;;;;;;;27.83;17.52;;;;;;;13.08;88.66;101812.81;5082919;28;20054;-68
2023/10/10 06:30:04;;;;;;;27.58;18.67;;;;;;;13.10;88.88;101821.59;5077697;28;20491;-68
2023/10/10 06:32:32;;;;;;;30.33;19.85;;;;;;;13.12;89.13;101817.13;5084345;28;20035;-68
2023/10/10 06:37:45;;;;;;;28.10;18.25;;;;;;;13.20;89.04;101819.50;5074510;28;20082;-68
2023/10/10 06:40:11;;;;;;;25.67;17.63;;;;;;;13.25;89.16;101813.13;5076366;28;20491;-68
2023/10/10 06:42:46;;;;;;;26.67;16.95;;;;;;;13.47;88.06;101807.91;5083747;28;20169;-67
2023/10/10 06:45:20;;;;;;;23.63;16.55;;;;;;;13.49;87.71;101807.84;5079359;28;20086;-68
2023/10/10 06:47:50;;;;;;;26.17;17.58;;;;;;;13.50;87.63;101804.28;5084605;28;20387;-67
2023/10/10 06:50:21;;;;;;;24.90;16.33;;;;;;;13.52;87.35;101807.72;5084585;28;20503;-67
2023/10/10 06:52:52;;;;;;;24.00;16.70;;;;;;;13.53;87.65;101810.34;5077064;28;20419;-68
2023/10/10 06:55:22;;;;;;;25.15;16.58;;;;;;;13.54;87.38;101813.88;5084477;28;20047;-68
2023/10/10 06:58:01;;;;;;;23.70;17.10;;;;;;;13.61;87.51;101817.16;5083421;28;20020;-67
2023/10/10 07:00:44;;;;;;;27.60;17.60;;;;;;;13.67;87.13;101804.53;5074046;28;20024;-68
2023/10/10 07:03:19;;;;;;;26.77;16.58;;;;;;;13.72;87.53;101810.53;5073263;28;20282;-68
2023/10/10 07:05:48;;;;;;;26.98;17.20;;;;;;;13.92;87.02;101808.91;5081324;28;20059;-68
2023/10/10 07:08:18;;;;;;;24.70;15.55;;;;;;;14.08;86.59;101804.69;5073550;28;20157;-69
2023/10/10 07:10:45;;;;;;;23.08;16.90;;;;;;;14.14;85.94;101809.78;5072429;28;20051;-69
2023/10/10 07:13:13;;;;;;;24.83;16.67;;;;;;;14.26;85.26;101800.44;5083517;28;20036;-69
2023/10/10 07:15:42;;;;;;;26.42;17.25;;;;;;;14.35;85.35;101800.06;5083029;28;20032;-69
2023/10/10 07:18:22;;;;;;;29.33;17.35;;;;;;;14.31;85.92;101801.13;5079578;28;20047;-69
2023/10/10 07:21:30;;;;;;;27.30;17.23;;;;;;;14.37;86.24;101800.03;5080796;28;20102;-68
2023/10/10 07:24:02;;;;;;;26.13;17.00;;;;;;;14.44;85.79;101791.72;5073153;28;20082;-67
2023/10/10 07:26:31;;;;;;;26.83;16.65;;;;;;;14.51;85.97;101792.38;5079782;28;20034;-68
2023/10/10 07:29:26;;;;;;;30.75;18.55;;;;;;;14.58;85.12;101788.53;5080788;28;20039;-68
2023/10/10 07:31:47;;;;;;;27.52;17.52;;;;;;;14.68;85.17;101792.53;5074247;28;20040;-67
2023/10/10 07:34:15;;;;;;;26.77;15.93;;;;;;;14.82;84.50;101794.59;5080581;28;20039;-68
2023/10/10 07:36:43;;;;;;;29.15;17.35;;;;;;;14.85;84.62;101788.28;5073389;28;20025;-69
2023/10/10 07:41:57;;;;;;;28.27;16.40;;;;;;;14.90;85.43;101791.63;5074900;28;20039;-68
2023/10/10 07:44:22;;;;;;;28.77;17.77;;;;;;;14.98;84.84;101789.50;5080850;28;20034;-68
2023/10/10 07:47:19;;;;;;;23.92;16.35;;;;;;;14.97;84.86;101798.44;5073795;28;20025;-68
2023/10/10 07:49:34;;;;;;;28.30;16.92;;;;;;;15.04;84.67;101783.91;5081231;28;20072;-67
2023/10/10 07:52:02;;;;;;;24.45;15.75;;;;;;;15.07;84.33;101790.91;5080246;28;20102;-67
2023/10/10 07:54:41;;;;;;;26.90;16.13;;;;;;;15.20;83.33;101784.06;5080342;28;20033;-68
2023/10/10 07:57:29;;;;;;;26.70;16.02;;;;;;;15.32;83.49;101787.06;5072472;28;20051;-68
2023/10/10 07:59:55;;;;;;;24.58;15.65;;;;;;;15.39;82.77;101787.69;5082384;28;20032;-67
2023/10/10 08:02:24;;;;;;;26.63;16.35;;;;;;;15.57;82.10;101788.63;5084332;28;20028;-68
2023/10/10 08:04:54;;;;;;;24.05;15.50;;;;;;;15.75;80.72;101790.47;5083413;28;20032;-68
2023/10/10 08:07:20;;;;;;;22.38;14.10;;;;;;;16.02;80.01;101793.63;5080437;28;20024;-68
2023/10/10 08:09:46;;;;;;;22.67;14.18;;;;;;;16.26;79.37;101793.41;5079950;28;20492;-68
2023/10/10 08:12:13;;;;;;;21.83;14.68;;;;;;;16.51;78.23;101793.94;5082520;28;20094;-68
2023/10/10 08:14:39;;;;;;;22.17;14.57;;;;;;;16.68;76.80;101794.88;5083046;28;20032;-68
2023/10/10 08:17:18;;;;;;;22.25;14.80;;;;;;;16.73;76.51;101795.53;5079384;28;20028;-69
2023/10/10 08:19:50;;;;;;;20.52;13.77;;;;;;;16.94;76.22;101798.94;5077781;28;20403;-69
2023/10/10 08:22:17;;;;;;;19.88;13.25;;;;;;;17.29;74.62;101794.41;5079689;28;20031;-69
2023/10/10 08:24:43;;;;;;;21.90;14.23;;;;;;;17.43;73.02;101799.88;5077734;28;20024;-69
2023/10/10 08:27:10;;;;;;;22.02;13.02;;;;;;;17.57;73.39;101793.78;5082852;28;20103;-69
2023/10/10 08:29:35;;;;;;;23.42;13.52;;;;;;;17.59;73.01;101799.94;5079864;28;20031;-68
2023/10/10 08:32:01;;;;;;;17.60;13.05;;;;;;;17.60;72.19;101793.63;5079613;28;20397;-69
2023/10/10 08:34:26;;;;;;;19.52;12.30;;;;;;;17.65;72.90;101796.91;5081254;28;20037;-69
2023/10/10 08:36:56;;;;;;;19.92;12.70;;;;;;;17.75;71.95;101792.81;5082661;28;20065;-69
2023/10/10 08:41:52;;;;;;;21.55;12.73;;;;;;;17.86;71.50;101786.91;5079845;28;20075;-69
2023/10/10 08:44:18;;;;;;;21.17;12.20;;;;;;;18.16;70.07;101794.13;5079840;28;20033;-69
2023/10/10 08:46:46;;;;;;;19.90;12.00;;;;;;;18.59;69.44;101792.53;5081052;28;20132;-69
2023/10/10 08:49:13;;;;;;;18.80;12.43;;;;;;;18.91;67.42;101796.00;5083058;28;20060;-69
2023/10/10 08:51:39;;;;;;;18.95;11.18;;;;;;;19.34;66.23;101799.59;5078759;28;20048;-69
2023/10/10 08:54:09;;;;;;;18.90;12.35;;;;;;;19.45;66.05;101800.78;5078293;28;20050;-69
2023/10/10 08:57:00;;;;;;;17.38;11.10;;;;;;;19.86;64.32;101804.44;5078240;28;20043;-69
2023/10/10 08:59:28;;;;;;;16.95;11.30;;;;;;;19.91;62.79;101801.47;5074318;28;20021;-69
2023/10/10 09:01:55;;;;;;;15.98;9.88;;;;;;;20.08;62.56;101798.53;5081220;28;20025;-69
2023/10/10 09:04:27;;;;;;;17.45;11.43;;;;;;;20.30;62.08;101792.63;5082722;28;20022;-69
2023/10/10 09:06:59;;;;;;;15.23;10.20;;;;;;;20.78;60.46;101797.53;5081809;28;20020;-69
2023/10/10 09:09:35;;;;;;;19.75;9.93;;;;;;;21.16;58.34;101789.53;5073132;28;20063;-69
2023/10/10 09:12:03;;;;;;;18.88;10.75;;;;;;;21.36;58.67;101796.25;5080100;28;20077;-70
2023/10/10 09:14:36;;;;;;;19.02;11.40;;;;;;;21.81;56.28;101796.59;5077123;28;20116;-69
2023/10/10 09:17:06;;;;;;;13.38;8.90;;;;;;;22.36;55.43;101790.75;5078079;28;20039;-70
2023/10/10 09:19:32;;;;;;;15.63;10.48;;;;;;;22.75;53.47;101795.94;5081231;28;20034;-70
2023/10/10 09:21:59;;;;;;;14.75;9.50;;;;;;;23.10;52.34;101798.66;5077604;28;20511;-70
2023/10/10 09:24:31;;;;;;;15.93;9.82;;;;;;;23.38;51.59;101790.09;5075910;28;20464;-69
2023/10/10 09:26:59;;;;;;;14.43;10.25;;;;;;;24.12;50.15;101790.47;5082518;28;20039;-70
2023/10/10 09:29:32;;;;;;;12.00;8.52;;;;;;;24.97;51.03;101783.38;5079661;28;20052;-70
2023/10/10 09:31:59;;;;;;;13.32;8.18;;;;;;;24.78;46.53;101794.91;5077002;28;20114;-70
2023/10/10 09:34:28;;;;;;;16.80;9.27;;;;;;;24.56;47.94;101787.75;5081308;28;20371;-69
2023/10/10 09:36:57;;;;;;;13.43;9.18;;;;;;;24.04;47.34;101794.78;5079225;28;20108;-69
2023/10/10 09:39:35;;;;;;;16.23;9.65;;;;;;;23.89;48.01;101791.47;5079951;28;20091;-69
2023/10/10 09:42:06;;;;;;;12.43;9.15;;;;;;;24.78;46.09;101792.22;5072953;28;20028;-68
2023/10/10 09:45:18;;;;;;;16.17;8.85;;;;;;;25.84;44.90;101798.28;5079973;28;20422;-69
2023/10/10 09:48:06;;;;;;;15.40;8.98;;;;;;;26.83;42.59;101795.56;5080526;28;20048;-69
2023/10/10 09:50:37;;;;;;;14.63;8.83;;;;;;;27.37;40.21;101799.47;5076266;28;20024;-68
2023/10/10 09:53:06;;;;;;;15.57;8.90;;;;;;;27.76;40.98;101802.09;5081393;28;20058;-69
2023/10/10 10:00:45;;;;;;;14.20;8.05;;;;;;;28.09;39.34;101806.06;5085525;28;20034;-69
2023/10/10 10:09:19;;;;;;;14.93;8.63;;;;;;;29.96;38.58;101783.00;5085781;28;20028;-69
2023/10/10 10:12:19;;;;;;;8.45;6.80;;;;;;;30.21;36.78;101789.38;5080791;28;20452;-71
2023/10/10 10:15:03;;;;;;;14.93;7.90;;;;;;;30.53;37.81;101785.00;5077660;28;20460;-72
2023/10/10 10:17:46;;;;;;;14.52;8.25;;;;;;;30.87;34.09;101781.28;5075494;28;20419;-70
2023/10/10 10:20:21;;;;;;;13.02;8.32;;;;;;;30.97;32.09;101781.97;5079525;28;20040;-73
2023/10/10 10:22:53;;;;;;;14.15;8.38;;;;;;;30.46;33.43;101786.72;5080957;28;20391;-73
2023/10/10 10:25:22;;;;;;;11.88;8.20;;;;;;;30.90;33.99;101787.25;5084446;28;20204;-69
2023/10/10 10:27:52;;;;;;;15.63;8.20;;;;;;;31.59;32.75;101781.31;5082120;28;20028;-69
2023/10/10 10:32:44;;;;;;;12.57;8.80;;;;;;;33.09;29.60;101774.53;5082156;28;20028;-69
2023/10/10 10:35:12;;;;;;;11.38;8.30;;;;;;;32.80;29.37;101776.16;5081662;28;20506;-71
2023/10/10 10:37:39;;;;;;;13.18;8.93;;;;;;;32.02;30.83;101777.22;5084538;28;20024;-70
2023/10/10 10:42:37;;;;;;;15.07;8.82;;;;;;;33.72;29.55;101773.16;5081872;28;20093;-70
2023/10/10 10:45:35;;;;;;;13.55;8.40;;;;;;;34.21;28.41;101770.59;5086001;28;20032;-71
2023/10/10 10:48:07;;;;;;;12.30;7.90;;;;;;;33.89;30.46;101773.78;5074517;28;20464;-71
2023/10/10 10:50:40;;;;;;;12.32;8.13;;;;;;;33.85;28.07;101766.97;5081741;28;20039;-70
2023/10/10 10:53:20;;;;;;;11.05;8.50;;;;;;;33.70;28.45;101769.75;5079877;28;20609;-70
2023/10/10 10:58:48;;;;;;;11.98;8.18;;;;;;;31.97;29.04;101768.69;5084779;28;20093;-70
2023/10/10 11:01:17;;;;;;;13.07;8.63;;;;;;;32.08;30.57;101759.22;5065649;28;20039;-71
2023/10/10 11:03:44;;;;;;;13.85;8.73;;;;;;;32.66;29.88;101757.81;5081374;28;20028;-71
2023/10/10 11:06:10;;;;;;;13.52;8.75;;;;;;;32.39;30.53;101761.94;5073201;28;20028;-70
2023/10/10 11:13:55;;;;;;;13.38;8.85;;;;;;;31.79;31.43;101749.78;5084594;28;20032;-70
2023/10/10 11:16:36;;;;;;;14.35;8.07;;;;;;;31.61;31.80;101746.44;5081452;28;20107;-70
2023/10/10 11:19:12;;;;;;;14.23;8.53;;;;;;;30.95;30.72;101735.69;5078930;28;20066;-70
2023/10/10 11:21:47;;;;;;;12.13;7.82;;;;;;;31.15;32.65;101736.19;5082112;28;20281;-70
2023/10/10 11:24:13;;;;;;;13.52;8.10;;;;;;;31.05;32.31;101737.38;5077929;28;20044;-70
2023/10/10 11:26:39;;;;;;;17.02;7.97;;;;;;;30.87;31.80;101734.84;5084761;28;20107;-70
2023/10/10 11:29:29;;;;;;;13.02;8.40;;;;;;;30.71;33.43;101731.13;5084299;28;20050;-70
2023/10/10 11:32:08;;;;;;;12.00;7.65;;;;;;;30.42;32.31;101728.03;5078093;28;20028;-70
2023/10/10 11:34:42;;;;;;;12.60;8.18;;;;;;;30.82;32.25;101727.19;5083161;28;20508;-70
2023/10/10 11:37:23;;;;;;;11.45;7.97;;;;;;;30.63;33.22;101722.06;5084003;28;20026;-70
2023/10/10 11:39:58;;;;;;;15.48;7.80;;;;;;;30.35;33.17;101727.00;5073300;28;20028;-70
2023/10/10 11:42:27;;;;;;;11.65;7.10;;;;;;;30.43;33.76;101725.13;5081313;28;20400;-70
2023/10/10 11:45:05;;;;;;;12.60;7.53;;;;;;;30.21;34.28;101723.06;5080214;28;20028;-70
2023/10/10 11:47:31;;;;;;;14.23;7.43;;;;;;;29.86;33.62;101716.84;5081229;28;20024;-70
2023/10/10 11:50:01;;;;;;;9.23;7.35;;;;;;;29.67;33.64;101707.09;5082987;28;20510;-70
2023/10/10 11:52:28;;;;;;;14.35;7.50;;;;;;;29.28;35.00;101714.88;5072916;28;20048;-70
2023/10/10 11:54:58;;;;;;;11.98;7.47;;;;;;;29.38;34.40;101707.47;5082825;28;20032;-71
2023/10/10 11:57:28;;;;;;;11.20;7.40;;;;;;;30.02;34.23;101704.25;5083585;28;20088;-71
2023/10/10 11:59:58;;;;;;;12.53;6.77;;;;;;;30.46;34.30;101697.50;5081457;28;20708;-70
2023/10/10 12:02:29;;;;;;;9.60;6.97;;;;;;;30.14;33.53;101690.16;5078879;28;20032;-70
2023/10/10 12:04:55;;;;;;;13.25;7.47;;;;;;;30.73;33.13;101696.34;5081715;28;20023;-71
2023/10/10 12:07:24;;;;;;;12.40;7.45;;;;;;;30.46;33.29;101691.19;5083519;28;20020;-71
2023/10/10 12:09:54;;;;;;;9.98;7.05;;;;;;;29.74;35.31;101693.63;5083089;28;20024;-71
2023/10/10 12:12:20;;;;;;;9.55;7.10;;;;;;;28.92;34.33;101695.94;5079707;28;20376;-70
2023/10/10 12:14:45;;;;;;;12.55;7.15;;;;;;;29.19;34.51;101703.13;5079939;28;20025;-70
2023/10/10 12:17:13;;;;;;;13.25;7.35;;;;;;;29.39;34.12;101697.41;5084281;28;20391;-71
2023/10/10 12:19:43;;;;;;;8.98;6.97;;;;;;;29.19;34.44;101692.22;5080020;28;20544;-71
2023/10/10 12:22:10;;;;;;;10.20;6.88;;;;;;;29.40;35.05;101693.66;5080177;28;20384;-70
2023/10/10 12:24:37;;;;;;;10.82;6.78;;;;;;;29.65;33.38;101683.72;5078499;28;20375;-71
2023/10/10 12:27:07;;;;;;;8.82;6.47;;;;;;;29.59;33.51;101677.06;5083120;28;20077;-71
2023/10/10 12:29:33;;;;;;;9.27;6.30;;;;;;;29.53;34.71;101677.72;5072104;28;20036;-70
2023/10/10 12:31:59;;;;;;;9.75;7.03;;;;;;;29.92;34.14;101672.53;5079576;28;20078;-70
2023/10/10 12:34:25;;;;;;;9.32;5.95;;;;;;;29.53;34.44;101671.41;5081480;28;20070;-70
2023/10/10 12:36:59;;;;;;;10.88;7.28;;;;;;;29.37;34.18;101669.47;5083003;28;20028;-70
2023/10/10 12:39:30;;;;;;;13.02;6.95;;;;;;;29.22;34.39;101671.97;5082007;28;20098;-70
2023/10/10 12:41:55;;;;;;;11.52;6.53;;;;;;;29.09;35.42;101664.22;5079622;28;20103;-70
2023/10/10 12:44:23;;;;;;;13.40;7.28;;;;;;;29.41;34.31;101658.06;5079777;28;20064;-70
2023/10/10 12:46:49;;;;;;;10.90;6.03;;;;;;;29.39;35.24;101651.94;5071681;28;20035;-70
2023/10/10 12:49:14;;;;;;;8.88;6.25;;;;;;;29.87;35.83;101655.00;5079673;28;20476;-70
2023/10/10 12:51:44;;;;;;;10.60;6.25;;;;;;;30.38;34.21;101651.13;5077346;28;20127;-70
2023/10/10 12:54:12;;;;;;;10.02;6.13;;;;;;;30.38;32.32;101656.56;5079703;28;20086;-70
2023/10/10 12:56:55;;;;;;;11.18;6.53;;;;;;;29.98;32.28;101658.25;5080147;28;20050;-70
2023/10/10 12:59:20;;;;;;;9.05;5.28;;;;;;;29.52;31.60;101656.94;5082778;28;20059;-70
2023/10/10 13:01:46;;;;;;;9.18;5.18;;;;;;;30.04;30.53;101653.16;5081846;28;20051;-70
2023/10/10 13:04:17;;;;;;;8.98;5.30;;;;;;;30.25;32.13;101642.59;5079241;28;20533;-71
2023/10/10 13:06:42;;;;;;;9.38;4.93;;;;;;;30.20;30.30;101643.09;5079713;28;20081;-69
2023/10/10 13:09:08;;;;;;;10.48;5.38;;;;;;;29.67;31.32;101649.00;5081351;28;20032;-70
2023/10/10 13:11:36;;;;;;;8.45;5.35;;;;;;;29.85;31.74;101652.44;5082229;28;20470;-70
2023/10/10 13:14:14;;;;;;;10.90;5.60;;;;;;;29.85;31.77;101643.41;5081234;28;20475;-69
2023/10/10 13:19:11;;;;;;;7.72;5.18;;;;;;;29.46;33.40;101644.81;5081262;28;20437;-70
2023/10/10 13:21:38;;;;;;;11.40;4.82;;;;;;;30.29;31.44;101654.88;5073051;28;20099;-70
2023/10/10 13:24:11;;;;;;;9.48;4.65;;;;;;;29.97;30.65;101650.22;5079657;28;20131;-70
2023/10/10 13:26:38;;;;;;;9.55;5.03;;;;;;;29.95;31.06;101644.94;5083447;28;20393;-70
2023/10/10 13:29:05;;;;;;;10.27;5.00;;;;;;;30.62;29.98;101649.38;5083482;28;20395;-70
2023/10/10 13:31:31;;;;;;;8.57;4.85;;;;;;;30.42;30.99;101641.56;5084726;28;20023;-70
2023/10/10 13:33:56;;;;;;;11.32;5.30;;;;;;;30.09;31.47;101643.44;5086204;28;20032;-70
2023/10/10 13:36:21;;;;;;;7.35;4.68;;;;;;;30.54;30.89;101647.50;5084972;28;20059;-70
2023/10/10 13:38:49;;;;;;;7.15;4.68;;;;;;;30.75;29.41;101641.53;5083097;28;20028;-70
2023/10/10 13:41:19;;;;;;;9.18;4.85;;;;;;;30.00;31.02;101652.63;5082542;28;20029;-70
2023/10/10 13:43:51;;;;;;;10.55;4.70;;;;;;;30.10;30.54;101652.47;5074320;28;20036;-71
2023/10/10 13:46:20;;;;;;;11.38;4.68;;;;;;;31.16;29.38;101647.72;5082398;28;20020;-71
2023/10/10 13:48:48;;;;;;;12.77;4.93;;;;;;;31.18;29.38;101644.81;5083409;28;20487;-70
2023/10/10 13:51:16;;;;;;;8.00;4.80;;;;;;;32.01;27.56;101636.00;5081380;28;20464;-70
2023/10/10 13:53:43;;;;;;;7.47;4.65;;;;;;;32.63;28.54;101640.41;5083948;28;20024;-70
2023/10/10 13:56:10;;;;;;;7.93;4.78;;;;;;;33.19;27.10;101647.16;5082559;28;20036;-70